Time;durP1;ratioP1;P1;durP2;ratioP2;P2;SDS_P1;SDS_P2;PMS_P1;PMS_P2;Temp;Humidity;BMP_temperature;BMP_pressure;BME280_temperature;BME280_humidity;BME280_pressure;Samples;Min_cycle;Max_cycle;Signal;HPM_P1;HPM_P2
2023/04/21 00:00:52;;;;;;;26.20;7.30;;;;;;;8.42;100.00;101384.66;4913460;29;20052;-73
2023/04/21 00:03:21;;;;;;;22.52;7.07;;;;;;;8.42;100.00;101365.09;4913879;29;20054;-72
2023/04/21 00:05:49;;;;;;;20.25;6.53;;;;;;;8.38;100.00;101372.53;4913382;29;20462;-74
2023/04/21 00:08:17;;;;;;;28.80;7.00;;;;;;;8.33;100.00;101367.59;4913552;29;20044;-72
2023/04/21 00:10:44;;;;;;;24.40;7.50;;;;;;;8.36;100.00;101372.69;4913086;29;20066;-73
2023/04/21 00:13:10;;;;;;;17.08;6.82;;;;;;;8.33;100.00;101361.38;4913700;29;20048;-74
2023/04/21 00:15:37;;;;;;;27.23;7.63;;;;;;;8.29;100.00;101368.81;4913317;29;20056;-72
2023/04/21 00:18:04;;;;;;;25.65;7.93;;;;;;;8.29;100.00;101368.81;4913647;29;20480;-72
2023/04/21 00:20:31;;;;;;;20.63;7.20;;;;;;;8.26;100.00;101377.09;4913293;29;20099;-73
2023/04/21 00:22:58;;;;;;;33.15;8.15;;;;;;;8.29;100.00;101375.97;4913230;29;20052;-73
2023/04/21 00:25:25;;;;;;;27.08;7.78;;;;;;;8.23;100.00;101376.50;4912467;29;20104;-72
2023/04/21 00:27:51;;;;;;;25.33;8.02;;;;;;;8.22;100.00;101367.63;4913616;29;20135;-73
2023/04/21 00:30:18;;;;;;;19.15;7.88;;;;;;;8.26;100.00;101365.53;4912783;29;20044;-73
2023/04/21 00:32:44;;;;;;;21.30;8.27;;;;;;;8.20;100.00;101368.75;4913353;29;20423;-72
2023/04/21 00:35:11;;;;;;;19.90;7.10;;;;;;;8.15;100.00;101363.78;4912780;29;20493;-72
2023/04/21 00:37:37;;;;;;;31.48;8.27;;;;;;;8.10;100.00;101366.84;4912668;29;20056;-74
2023/04/21 00:40:04;;;;;;;24.63;8.18;;;;;;;8.05;100.00;101361.03;4908874;29;20048;-73
2023/04/21 00:42:31;;;;;;;19.65;7.20;;;;;;;8.04;100.00;101353.97;4913188;29;20044;-73
2023/04/21 00:44:57;;;;;;;20.33;7.90;;;;;;;8.01;100.00;101356.06;4912798;29;20052;-72
2023/04/21 00:47:24;;;;;;;22.67;8.38;;;;;;;7.97;100.00;101357.31;4912864;29;20123;-74
2023/04/21 00:49:51;;;;;;;23.08;7.80;;;;;;;7.94;100.00;101357.56;4913051;29;20051;-72
2023/04/21 00:52:18;;;;;;;22.33;7.80;;;;;;;7.85;100.00;101357.34;4911474;29;20048;-72
2023/04/21 00:54:45;;;;;;;19.92;7.63;;;;;;;7.89;100.00;101352.59;4907908;29;20048;-72
2023/04/21 00:57:12;;;;;;;25.83;8.82;;;;;;;7.82;100.00;101352.22;4913068;29;20051;-72
2023/04/21 00:59:38;;;;;;;25.70;9.02;;;;;;;7.81;100.00;101355.00;4913276;29;20062;-72
2023/04/21 01:02:05;;;;;;;27.77;9.10;;;;;;;7.77;100.00;101362.44;4913475;29;20047;-72
2023/04/21 01:04:37;;;;;;;28.30;8.60;;;;;;;7.70;100.00;101355.06;4912896;29;20052;-73
2023/04/21 01:07:41;;;;;;;24.85;8.73;;;;;;;7.65;100.00;101356.28;4912820;29;20054;-73
2023/04/21 01:10:08;;;;;;;19.17;8.25;;;;;;;7.63;100.00;101358.22;4914217;29;20044;-72
2023/04/21 01:12:46;;;;;;;24.65;8.25;;;;;;;7.56;100.00;101350.84;4912961;29;20048;-72
2023/04/21 01:15:14;;;;;;;21.25;8.70;;;;;;;7.55;100.00;101359.84;4912453;29;20048;-71
2023/04/21 01:17:41;;;;;;;21.95;8.30;;;;;;;7.56;100.00;101351.69;4911428;29;20056;-73
2023/04/21 01:20:12;;;;;;;27.40;9.13;;;;;;;7.52;100.00;101352.91;4912898;29;20048;-73
2023/04/21 01:22:40;;;;;;;27.23;8.00;;;;;;;7.44;100.00;101352.69;4913766;29;20052;-73
2023/04/21 01:25:08;;;;;;;27.35;8.43;;;;;;;7.47;100.00;101356.94;4912710;29;20051;-73
2023/04/21 01:27:34;;;;;;;29.42;8.75;;;;;;;7.41;100.00;101352.94;4912693;29;20141;-73
2023/04/21 01:30:02;;;;;;;25.20;9.05;;;;;;;7.35;100.00;101345.44;4912455;29;20056;-73
2023/04/21 01:32:30;;;;;;;25.10;9.15;;;;;;;7.37;100.00;101343.50;4912087;29;20709;-73
2023/04/21 01:34:58;;;;;;;26.25;9.05;;;;;;;7.33;100.00;101344.72;4912573;29;20134;-74
2023/04/21 01:37:28;;;;;;;20.45;9.02;;;;;;;7.28;100.00;101341.56;4913027;29;20099;-73
2023/04/21 01:39:57;;;;;;;22.75;9.95;;;;;;;7.24;100.00;101342.78;4913074;29;20420;-73
2023/04/21 01:42:26;;;;;;;24.52;10.05;;;;;;;7.16;100.00;101338.91;4914538;29;20044;-74
2023/04/21 01:44:52;;;;;;;21.13;8.80;;;;;;;7.19;100.00;101344.00;4917074;29;20461;-73
2023/04/21 01:47:20;;;;;;;27.48;10.00;;;;;;;7.16;100.00;101338.91;4917085;29;20071;-74
2023/04/21 01:49:46;;;;;;;22.50;9.27;;;;;;;7.10;100.00;101341.22;4916167;29;20393;-73
2023/04/21 01:52:13;;;;;;;27.67;10.30;;;;;;;7.08;100.00;101335.13;4917156;29;20040;-73
2023/04/21 01:54:39;;;;;;;23.20;9.55;;;;;;;7.10;100.00;101333.22;4916441;29;20071;-72
2023/04/21 01:57:06;;;;;;;20.23;10.00;;;;;;;6.99;100.00;101335.91;4900159;29;20044;-74
2023/04/21 01:59:33;;;;;;;20.30;10.00;;;;;;;6.95;100.00;101333.47;4912775;29;20056;-73
2023/04/21 02:01:59;;;;;;;24.60;10.18;;;;;;;6.98;100.00;101332.38;4916437;29;20421;-74
2023/04/21 02:04:26;;;;;;;22.15;9.88;;;;;;;6.98;100.00;101332.38;4915637;29;20072;-74
2023/04/21 02:06:52;;;;;;;21.80;10.18;;;;;;;6.93;100.00;101331.88;4916043;29;20044;-73
2023/04/21 02:09:19;;;;;;;23.70;10.48;;;;;;;6.94;100.00;101325.56;4915524;29;20131;-74
2023/04/21 02:11:46;;;;;;;30.40;12.30;;;;;;;6.90;100.00;101322.28;4916310;29;20417;-73
2023/04/21 02:14:12;;;;;;;29.75;13.93;;;;;;;6.87;100.00;101316.34;4915804;29;20516;-74
2023/04/21 02:16:39;;;;;;;37.03;14.95;;;;;;;6.87;100.00;101324.34;4915498;29;20044;-73
2023/04/21 02:19:06;;;;;;;41.30;16.38;;;;;;;6.79;100.00;101330.31;4907883;29;20047;-74
2023/04/21 02:21:33;;;;;;;33.75;18.00;;;;;;;6.80;100.00;101320.47;4915982;29;20051;-73
2023/04/21 02:23:59;;;;;;;43.15;21.58;;;;;;;6.77;100.00;101318.06;4915690;29;20058;-73
2023/04/21 02:26:26;;;;;;;50.95;24.45;;;;;;;6.74;100.00;101315.63;4916022;29;20402;-73
2023/04/21 02:28:52;;;;;;;52.45;25.30;;;;;;;6.76;100.00;101319.88;4915019;29;20048;-73
2023/04/21 02:31:19;;;;;;;46.75;25.05;;;;;;;6.78;100.00;101322.44;4915812;29;20390;-73
2023/04/21 02:33:45;;;;;;;54.53;24.90;;;;;;;6.63;100.00;101314.69;4916623;29;20097;-73
2023/04/21 02:36:12;;;;;;;47.35;24.17;;;;;;;6.67;100.00;101310.78;4915538;29;20052;-72
2023/04/21 02:38:38;;;;;;;53.33;23.42;;;;;;;6.66;100.00;101308.22;4915404;29;20053;-74
2023/04/21 02:41:05;;;;;;;50.92;21.90;;;;;;;6.62;100.00;101307.63;4914818;29;20086;-73
2023/04/21 02:43:31;;;;;;;40.40;20.77;;;;;;;6.65;100.00;101307.38;4898397;29;20147;-74
2023/04/21 02:45:58;;;;;;;37.60;19.75;;;;;;;6.70;100.00;101307.03;4915762;29;20135;-73
2023/04/21 02:48:25;;;;;;;33.97;17.50;;;;;;;6.61;100.00;101313.09;4915227;29;20048;-75
2023/04/21 02:50:52;;;;;;;29.38;14.93;;;;;;;6.62;100.00;101317.44;4915298;29;20127;-73
2023/04/21 02:53:19;;;;;;;24.55;13.68;;;;;;;6.63;100.00;101319.13;4915933;29;20390;-74
2023/04/21 02:55:46;;;;;;;28.42;13.40;;;;;;;6.60;100.00;101309.59;4915866;29;20506;-73
2023/04/21 02:58:13;;;;;;;30.27;12.23;;;;;;;6.63;100.00;101322.69;4915452;29;20066;-73
2023/04/21 03:00:40;;;;;;;21.58;11.25;;;;;;;6.59;100.00;101307.03;4915196;29;20117;-73
2023/04/21 03:03:06;;;;;;;29.08;11.38;;;;;;;6.54;100.00;101314.53;4915136;29;20520;-72
2023/04/21 03:05:33;;;;;;;19.73;10.82;;;;;;;6.55;100.00;101317.06;4915784;29;20493;-73
2023/04/21 03:08:00;;;;;;;20.38;10.75;;;;;;;6.57;100.00;101307.16;4915406;29;20080;-72
2023/04/21 03:10:26;;;;;;;27.77;11.07;;;;;;;6.49;100.00;101309.53;4914719;29;20103;-74
2023/04/21 03:12:54;;;;;;;22.60;10.48;;;;;;;6.43;100.00;101302.06;4914786;29;20044;-73
2023/04/21 03:15:21;;;;;;;22.15;10.45;;;;;;;6.47;100.00;101303.50;4913989;29;20048;-73
2023/04/21 03:17:48;;;;;;;18.92;10.25;;;;;;;6.48;100.00;101305.19;4915531;29;20074;-75
2023/04/21 03:20:14;;;;;;;23.52;10.35;;;;;;;6.38;100.00;101302.38;4914581;29;20051;-72
2023/04/21 03:22:41;;;;;;;21.95;10.98;;;;;;;6.44;100.00;101303.75;4913547;29;20155;-73
2023/04/21 03:25:08;;;;;;;25.92;10.80;;;;;;;6.33;100.00;101306.41;4915593;29;20084;-72
2023/04/21 03:27:34;;;;;;;19.27;10.80;;;;;;;6.35;100.00;101304.44;4914344;29;20051;-73
2023/04/21 03:30:00;;;;;;;23.02;10.43;;;;;;;6.31;100.00;101305.66;4914568;29;20131;-73
2023/04/21 03:32:27;;;;;;;22.67;11.02;;;;;;;6.24;100.00;101310.56;4914466;29;20052;-74
2023/04/21 03:34:54;;;;;;;20.77;10.75;;;;;;;6.30;100.00;101311.97;4914961;29;20044;-73
2023/04/21 03:37:20;;;;;;;25.05;11.05;;;;;;;6.29;100.00;101310.22;4914337;29;20044;-73
2023/04/21 03:39:47;;;;;;;24.58;11.15;;;;;;;6.27;100.00;101304.19;4914929;29;20135;-73
2023/04/21 03:42:13;;;;;;;22.48;10.50;;;;;;;6.27;100.00;101309.53;4897604;29;20408;-72
2023/04/21 03:44:40;;;;;;;21.42;11.23;;;;;;;6.22;100.00;101309.84;4904160;29;20055;-73
2023/04/21 03:47:06;;;;;;;25.00;10.50;;;;;;;6.27;100.00;101315.69;4913219;29;20051;-72
2023/04/21 03:49:33;;;;;;;24.55;11.15;;;;;;;6.26;100.00;101311.34;4913540;29;20048;-72
2023/04/21 03:52:00;;;;;;;21.63;11.02;;;;;;;6.18;100.00;101308.38;4913274;29;20461;-73
2023/04/21 03:54:26;;;;;;;25.13;11.07;;;;;;;6.18;100.00;101314.56;4914339;29;20052;-73
2023/04/21 03:56:53;;;;;;;20.25;10.98;;;;;;;6.16;100.00;101310.31;4903956;29;20517;-73
2023/04/21 03:59:20;;;;;;;20.40;10.98;;;;;;;6.20;100.00;101309.94;4914115;29;20048;-72
2023/04/21 04:01:47;;;;;;;30.77;11.35;;;;;;;6.19;100.00;101310.09;4913736;29;20128;-73
2023/04/21 04:04:13;;;;;;;20.92;10.95;;;;;;;6.06;100.00;101312.81;4912493;29;20413;-73
2023/04/21 04:06:40;;;;;;;22.10;11.30;;;;;;;6.14;100.00;101313.06;4913247;29;20068;-73
2023/04/21 04:09:07;;;;;;;16.63;10.60;;;;;;;6.05;100.00;101308.47;4913110;29;20135;-73
2023/04/21 04:11:34;;;;;;;23.92;11.02;;;;;;;6.10;100.00;101311.63;4913047;29;20497;-73
2023/04/21 04:14:01;;;;;;;23.33;11.60;;;;;;;6.05;100.00;101316.47;4911743;29;20071;-73
2023/04/21 04:16:27;;;;;;;20.13;11.07;;;;;;;6.02;100.00;101314.03;4913083;29;20674;-73
2023/04/21 04:18:55;;;;;;;21.77;11.13;;;;;;;5.98;100.00;101315.22;4913641;29;20047;-72
2023/04/21 04:21:21;;;;;;;19.85;11.57;;;;;;;6.05;100.00;101318.28;4913017;29;20055;-73
2023/04/21 04:23:50;;;;;;;22.30;11.40;;;;;;;6.04;100.00;101313.91;4913477;29;20044;-73
2023/04/21 04:26:17;;;;;;;26.50;12.48;;;;;;;6.05;100.00;101327.13;4913125;29;20394;-74
2023/04/21 04:28:44;;;;;;;20.48;11.57;;;;;;;6.04;100.00;101329.88;4913047;29;20071;-73
2023/04/21 04:31:12;;;;;;;18.55;11.20;;;;;;;6.05;100.00;101320.94;4895556;29;20063;-72
2023/04/21 04:33:42;;;;;;;24.10;11.68;;;;;;;6.02;100.00;101330.00;4912992;29;20457;-72
2023/04/21 04:36:10;;;;;;;25.33;12.55;;;;;;;6.03;100.00;101331.69;4913593;29;20055;-73
2023/04/21 04:38:37;;;;;;;25.05;12.40;;;;;;;6.05;100.00;101328.94;4912607;29;20048;-73
2023/04/21 04:41:05;;;;;;;20.55;11.85;;;;;;;6.10;100.00;101332.94;4913266;29;20059;-73
2023/04/21 04:43:38;;;;;;;23.77;11.80;;;;;;;6.06;100.00;101336.81;4913119;29;20075;-73
2023/04/21 04:46:05;;;;;;;27.63;12.18;;;;;;;6.13;100.00;101331.84;4913523;29;20127;-72
2023/04/21 04:48:31;;;;;;;28.10;11.75;;;;;;;6.20;100.00;101333.94;4912647;29;20099;-72
2023/04/21 04:50:58;;;;;;;28.77;12.70;;;;;;;6.21;100.00;101330.28;4912894;29;20056;-72
2023/04/21 04:53:27;;;;;;;21.45;12.18;;;;;;;6.19;100.00;101334.91;4895902;29;20114;-73
2023/04/21 04:55:53;;;;;;;22.05;11.88;;;;;;;6.25;100.00;101338.91;4912414;29;20131;-74
2023/04/21 04:58:21;;;;;;;23.02;13.15;;;;;;;6.31;100.00;101345.63;4907162;29;20048;-73
2023/04/21 05:00:47;;;;;;;24.48;12.00;;;;;;;6.32;100.00;101334.88;4913665;29;20140;-73
2023/04/21 05:03:14;;;;;;;21.30;11.63;;;;;;;6.37;100.00;101340.66;4912233;29;20127;-74
2023/04/21 05:05:40;;;;;;;22.23;12.20;;;;;;;6.47;100.00;101347.00;4912842;29;20398;-72
2023/04/21 05:08:07;;;;;;;28.58;11.63;;;;;;;6.59;100.00;101339.84;4912106;29;20066;-73
2023/04/21 05:10:34;;;;;;;21.92;11.73;;;;;;;6.73;100.00;101345.94;4912333;29;20056;-74
2023/04/21 05:13:00;;;;;;;23.60;12.48;;;;;;;6.68;100.00;101341.81;4912485;29;20062;-73
2023/04/21 05:15:27;;;;;;;24.88;11.93;;;;;;;6.73;100.00;101333.44;4912746;29;20048;-73
2023/04/21 05:17:53;;;;;;;24.15;12.20;;;;;;;6.78;100.00;101346.44;4915339;29;20051;-74
2023/04/21 05:20:20;;;;;;;20.80;11.63;;;;;;;6.71;100.00;101344.25;4915701;29;20044;-74
2023/04/21 05:22:46;;;;;;;25.75;11.18;;;;;;;6.80;100.00;101352.47;4912760;29;20127;-74
2023/04/21 05:25:14;;;;;;;22.30;12.57;;;;;;;6.85;100.00;101350.31;4915974;29;20082;-73
2023/04/21 05:27:41;;;;;;;22.00;11.85;;;;;;;6.84;100.00;101349.47;4916051;29;20501;-73
2023/04/21 05:30:08;;;;;;;23.42;12.45;;;;;;;6.88;100.00;101344.75;4916170;29;20052;-73
2023/04/21 05:32:35;;;;;;;24.17;12.00;;;;;;;7.01;100.00;101345.44;4916414;29;20052;-73
2023/04/21 05:35:02;;;;;;;19.98;11.38;;;;;;;6.94;100.00;101341.56;4915086;29;20048;-73
2023/04/21 05:37:29;;;;;;;26.38;11.75;;;;;;;6.99;100.00;101344.75;4905747;29;20132;-73
2023/04/21 05:39:55;;;;;;;27.15;12.63;;;;;;;7.02;100.00;101349.84;4898111;29;20071;-73
2023/04/21 05:42:22;;;;;;;24.08;12.35;;;;;;;7.30;100.00;101344.97;4888197;29;20140;-73
2023/04/21 05:44:49;;;;;;;26.73;12.48;;;;;;;7.40;100.00;101344.09;4899002;29;20108;-73
2023/04/21 05:47:15;;;;;;;23.30;11.70;;;;;;;7.44;100.00;101352.69;4898047;29;20044;-74
2023/04/21 05:49:48;;;;;;;20.75;11.45;;;;;;;7.41;100.00;101359.13;4898047;29;20056;-73
2023/04/21 05:52:16;;;;;;;32.75;12.15;;;;;;;7.50;100.00;101357.56;4890712;29;20049;-73
2023/04/21 05:54:43;;;;;;;21.70;12.27;;;;;;;7.58;100.00;101355.09;4897117;29;20080;-74
2023/04/21 05:57:09;;;;;;;28.85;11.50;;;;;;;7.50;100.00;101351.34;4897853;29;20587;-72
2023/04/21 05:59:36;;;;;;;22.85;12.82;;;;;;;7.59;100.00;101350.59;4897831;29;20056;-74
2023/04/21 06:02:03;;;;;;;22.65;12.07;;;;;;;7.81;100.00;101349.66;4896915;29;20520;-73
2023/04/21 06:04:30;;;;;;;23.65;12.05;;;;;;;7.84;100.00;101346.78;4896147;29;20071;-74
2023/04/21 06:06:57;;;;;;;26.05;12.32;;;;;;;7.66;100.00;101349.13;4896426;29;20049;-74
2023/04/21 06:09:23;;;;;;;23.25;12.60;;;;;;;7.74;100.00;101348.47;4896100;29;20127;-74
2023/04/21 06:11:50;;;;;;;27.77;12.27;;;;;;;7.78;100.00;101344.59;4895218;29;20059;-74
2023/04/21 06:14:17;;;;;;;22.48;11.95;;;;;;;7.93;100.00;101343.34;4895665;29;20060;-72
2023/04/21 06:16:44;;;;;;;23.48;11.85;;;;;;;8.03;100.00;101341.59;4894150;29;20142;-72
2023/04/21 06:19:11;;;;;;;21.10;10.93;;;;;;;8.02;100.00;101342.59;4896423;29;20052;-73
2023/04/21 06:21:37;;;;;;;25.92;11.75;;;;;;;8.20;100.00;101347.38;4896484;29;20052;-74
2023/04/21 06:24:04;;;;;;;26.02;11.65;;;;;;;8.30;100.00;101337.59;4896620;29;20082;-72
2023/04/21 06:26:31;;;;;;;24.63;11.75;;;;;;;8.39;100.00;101339.47;4895870;29;20052;-75
2023/04/21 06:28:57;;;;;;;23.17;11.85;;;;;;;8.55;100.00;101331.84;4895429;29;20044;-73
2023/04/21 06:31:24;;;;;;;21.10;11.63;;;;;;;8.62;100.00;101324.13;4897761;29;20086;-71
2023/04/21 06:33:50;;;;;;;25.17;11.77;;;;;;;8.83;100.00;101326.75;4896719;29;20053;-73
2023/04/21 06:36:17;;;;;;;27.13;12.45;;;;;;;9.01;100.00;101333.16;4896474;29;20059;-74
2023/04/21 06:38:44;;;;;;;17.40;11.05;;;;;;;8.80;100.00;101327.03;4896237;29;20520;-72
2023/04/21 06:41:10;;;;;;;20.77;11.00;;;;;;;8.89;100.00;101326.25;4894238;29;20123;-73
2023/04/21 06:43:37;;;;;;;25.30;12.02;;;;;;;8.89;100.00;101331.59;4897705;29;20049;-72
2023/04/21 06:46:04;;;;;;;25.00;12.25;;;;;;;9.26;100.00;101326.50;4895805;29;20044;-73
2023/04/21 06:48:30;;;;;;;31.38;11.75;;;;;;;9.42;100.00;101328.69;4895986;29;20140;-73
2023/04/21 06:50:57;;;;;;;28.05;11.30;;;;;;;9.16;100.00;101327.44;4894708;29;20052;-73
2023/04/21 06:53:24;;;;;;;22.02;11.30;;;;;;;9.24;100.00;101316.94;4886865;29;20117;-72
2023/04/21 06:55:52;;;;;;;22.35;11.70;;;;;;;9.71;100.00;101325.19;4895349;29;20131;-71
2023/04/21 06:58:18;;;;;;;21.83;11.80;;;;;;;9.99;100.00;101327.06;4896107;29;20045;-70
2023/04/21 07:00:46;;;;;;;31.50;11.52;;;;;;;9.94;100.00;101328.44;4896160;29;20100;-71
2023/04/21 07:03:13;;;;;;;19.67;11.25;;;;;;;9.95;100.00;101322.09;4912368;29;20413;-71
2023/04/21 07:05:40;;;;;;;18.17;10.88;;;;;;;10.12;100.00;101323.22;4914778;29;20465;-72
2023/04/21 07:08:06;;;;;;;19.65;10.75;;;;;;;10.37;99.82;101327.13;4914580;29;20058;-72
2023/04/21 07:10:33;;;;;;;21.73;11.40;;;;;;;10.56;94.32;101323.59;4914034;29;20048;-73
2023/04/21 07:12:59;;;;;;;21.35;11.23;;;;;;;10.31;96.44;101325.03;4914544;29;20055;-73
2023/04/21 07:15:26;;;;;;;24.15;11.40;;;;;;;10.25;97.31;101321.09;4914695;29;20050;-74
2023/04/21 07:17:52;;;;;;;20.13;10.40;;;;;;;10.62;94.18;101320.34;4915807;29;20561;-72
2023/04/21 07:20:19;;;;;;;19.45;11.00;;;;;;;10.79;90.89;101324.94;4914363;29;20056;-73
2023/04/21 07:22:45;;;;;;;22.25;11.07;;;;;;;10.91;88.02;101322.91;4913321;29;20054;-73
2023/04/21 07:25:12;;;;;;;21.10;9.82;;;;;;;11.16;86.60;101324.06;4897254;29;20136;-73
2023/04/21 07:27:39;;;;;;;21.75;11.32;;;;;;;11.13;85.96;101311.75;4903301;29;20056;-72
2023/04/21 07:30:06;;;;;;;23.33;11.10;;;;;;;11.36;81.38;101320.28;4913100;29;20523;-72
2023/04/21 07:32:33;;;;;;;18.50;11.50;;;;;;;11.39;82.45;101317.28;4912138;29;20142;-73
2023/04/21 07:35:00;;;;;;;19.15;10.80;;;;;;;11.46;79.82;101313.00;4903902;29;20051;-72
2023/04/21 07:37:27;;;;;;;22.08;10.65;;;;;;;11.67;78.28;101306.53;4912325;29;20048;-73
2023/04/21 07:39:54;;;;;;;20.40;10.50;;;;;;;11.71;76.28;101310.59;4913378;29;20509;-73
2023/04/21 07:42:21;;;;;;;21.23;9.85;;;;;;;12.00;74.86;101320.25;4896273;29;20135;-72
2023/04/21 07:44:48;;;;;;;21.38;10.65;;;;;;;11.99;73.95;101316.72;4913451;29;20450;-73
2023/04/21 07:47:14;;;;;;;26.08;10.75;;;;;;;12.31;72.34;101310.75;4906228;29;20044;-70
2023/04/21 07:49:40;;;;;;;18.20;10.60;;;;;;;12.56;69.22;101305.56;4911017;29;20417;-73
2023/04/21 07:52:07;;;;;;;21.85;10.45;;;;;;;12.94;67.50;101303.41;4913296;29;20044;-73
2023/04/21 07:54:34;;;;;;;16.35;10.40;;;;;;;13.02;66.13;101306.16;4913933;29;20075;-73
2023/04/21 07:57:01;;;;;;;20.88;10.25;;;;;;;12.77;66.75;101306.03;4895977;29;20140;-73
2023/04/21 07:59:28;;;;;;;20.65;9.90;;;;;;;12.47;67.68;101301.94;4895645;29;20052;-73
2023/04/21 08:01:55;;;;;;;20.33;10.02;;;;;;;12.79;67.99;101295.09;4903902;29;20048;-73
2023/04/21 08:04:21;;;;;;;19.23;11.27;;;;;;;12.91;66.54;101301.91;4914247;29;20148;-72
2023/04/21 08:06:49;;;;;;;20.05;9.85;;;;;;;12.54;67.70;101305.69;4913725;29;20051;-71
2023/04/21 08:09:16;;;;;;;20.63;10.20;;;;;;;12.63;67.42;101298.53;4909533;29;20151;-73
2023/04/21 08:11:43;;;;;;;19.90;10.05;;;;;;;13.21;65.64;101297.78;4896591;29;20107;-72
2023/04/21 08:14:10;;;;;;;23.13;10.40;;;;;;;13.38;63.85;101295.97;4913782;29;20466;-72
2023/04/21 08:16:37;;;;;;;18.17;10.43;;;;;;;13.52;63.66;101291.81;4914176;29;20067;-72
2023/04/21 08:19:05;;;;;;;19.75;10.48;;;;;;;13.92;62.23;101288.34;4913356;29;20127;-72
2023/04/21 08:21:32;;;;;;;23.15;10.35;;;;;;;13.78;61.27;101287.16;4913991;29;20461;-72
2023/04/21 08:23:59;;;;;;;18.42;10.25;;;;;;;13.61;62.08;101293.50;4914088;29;20048;-72
2023/04/21 08:26:26;;;;;;;21.88;10.18;;;;;;;13.96;60.73;101294.25;4914299;29;20048;-72
2023/04/21 08:28:53;;;;;;;16.63;9.15;;;;;;;14.04;60.25;101291.53;4914616;29;20052;-72
2023/04/21 08:31:19;;;;;;;20.00;10.18;;;;;;;13.96;59.69;101284.28;4908001;29;20059;-73
2023/04/21 08:33:46;;;;;;;21.00;9.98;;;;;;;13.74;58.53;101288.47;4913424;29;20063;-73
2023/04/21 08:36:27;;;;;;;17.77;9.27;;;;;;;13.88;59.06;101283.47;4914628;29;20058;-72
2023/04/21 08:38:56;;;;;;;21.40;9.80;;;;;;;14.27;58.20;101292.53;4912056;29;20260;-72
2023/04/21 08:41:23;;;;;;;17.52;9.82;;;;;;;14.39;57.52;101286.78;4914330;29;20048;-72
2023/04/21 08:43:50;;;;;;;18.65;10.15;;;;;;;14.45;56.80;101286.09;4913749;29;20048;-72
2023/04/21 08:46:17;;;;;;;18.02;8.95;;;;;;;14.39;56.35;101279.53;4914607;29;20152;-73
2023/04/21 08:48:46;;;;;;;17.02;9.27;;;;;;;14.74;56.36;101283.69;4913996;29;20056;-73
2023/04/21 08:51:20;;;;;;;19.25;8.68;;;;;;;15.15;54.25;101280.78;4914287;29;20417;-76
2023/04/21 08:53:47;;;;;;;18.98;8.82;;;;;;;15.14;54.47;101272.88;4918227;29;20135;-73
2023/04/21 08:56:13;;;;;;;23.95;9.32;;;;;;;15.15;52.76;101274.56;4917707;29;20139;-71
2023/04/21 08:58:40;;;;;;;15.00;9.00;;;;;;;15.20;52.94;101275.72;4917903;29;20044;-73
2023/04/21 09:01:07;;;;;;;19.08;8.98;;;;;;;15.06;52.06;101272.94;4916465;29;20501;-69
2023/04/21 09:03:34;;;;;;;19.83;9.25;;;;;;;15.07;51.89;101280.84;4909740;29;20103;-71
2023/04/21 09:06:05;;;;;;;15.82;9.10;;;;;;;15.61;50.91;101275.47;4912928;29;20052;-73
2023/04/21 09:08:36;;;;;;;19.13;8.57;;;;;;;15.74;50.65;101279.44;4915820;29;20052;-70
2023/04/21 09:11:04;;;;;;;15.38;9.10;;;;;;;15.29;51.85;101281.06;4915891;29;20417;-72
2023/04/21 09:13:33;;;;;;;21.38;9.00;;;;;;;15.79;51.06;101282.47;4915614;29;20048;-72
2023/04/21 09:16:13;;;;;;;18.38;8.20;;;;;;;16.04;49.30;101288.50;4915991;29;20071;-72
2023/04/21 09:18:42;;;;;;;20.67;8.30;;;;;;;15.43;49.37;101273.06;4915973;29;20099;-73
2023/04/21 09:21:14;;;;;;;16.50;8.18;;;;;;;15.61;50.44;101280.88;4916609;29;20131;-73
2023/04/21 09:23:43;;;;;;;;;;;;;;;15.74;49.66;101274.88;4914993;29;20107;-70
2023/04/21 09:26:11;;;;;;;17.98;8.57;;;;;;;16.07;49.06;101269.22;4915822;29;19930;-71
2023/04/21 09:28:45;;;;;;;22.63;8.05;;;;;;;16.47;47.68;101267.97;4915686;29;20078;-70
2023/04/21 09:31:27;;;;;;;18.67;7.95;;;;;;;16.67;47.51;101270.97;4916379;29;20044;-71
2023/04/21 09:33:56;;;;;;;19.80;9.10;;;;;;;16.65;47.59;101264.91;4916040;29;20560;-72
2023/04/21 09:36:28;;;;;;;15.07;8.30;;;;;;;16.83;46.55;101269.94;4915818;29;20075;-71
2023/04/21 09:38:57;;;;;;;14.02;8.48;;;;;;;16.38;46.56;101272.63;4916501;29;20104;-72
2023/04/21 09:41:43;;;;;;;12.35;7.38;;;;;;;16.53;46.03;101258.28;4915350;29;20107;-71
2023/04/21 09:44:10;;;;;;;20.70;8.77;;;;;;;17.17;45.08;101258.50;4915870;29;20493;-73
2023/04/21 09:46:42;;;;;;;18.85;8.00;;;;;;;16.95;44.90;101263.00;4915906;29;20060;-71
2023/04/21 09:49:15;;;;;;;25.23;8.45;;;;;;;17.49;44.95;101256.38;4914942;29;20048;-70
2023/04/21 09:51:42;;;;;;;14.80;7.60;;;;;;;17.35;43.89;101258.94;4915740;29;20048;-71
2023/04/21 09:54:32;;;;;;;12.25;7.68;;;;;;;17.19;44.37;101253.72;4900296;29;20048;-72
2023/04/21 09:57:03;;;;;;;19.27;8.50;;;;;;;17.57;44.37;101254.34;4915549;29;20052;-74
2023/04/21 09:59:39;;;;;;;23.85;8.55;;;;;;;16.90;44.35;101243.78;4916114;29;20071;-72
2023/04/21 10:02:07;;;;;;;13.88;7.68;;;;;;;16.84;44.70;101245.34;4914023;29;20494;-71
2023/04/21 10:04:36;;;;;;;17.00;8.02;;;;;;;17.25;44.50;101247.53;4915901;29;20147;-72
2023/04/21 10:07:05;;;;;;;20.38;7.97;;;;;;;17.16;44.98;101242.41;4915258;29;20056;-71
2023/04/21 10:09:41;;;;;;;15.70;8.30;;;;;;;17.63;43.79;101249.19;4905178;29;20096;-70
2023/04/21 10:12:10;;;;;;;14.45;7.63;;;;;;;17.85;42.35;101237.28;4914906;29;20416;-70
2023/04/21 10:14:36;;;;;;;18.25;7.85;;;;;;;18.01;42.45;101244.31;4915109;29;20062;-72
2023/04/21 10:17:05;;;;;;;16.95;8.48;;;;;;;17.11;43.79;101229.44;4915255;29;20131;-71
2023/04/21 10:19:38;;;;;;;16.27;7.80;;;;;;;17.75;43.34;101232.22;4915237;29;20055;-74
2023/04/21 10:22:08;;;;;;;17.05;7.60;;;;;;;17.57;43.36;101224.50;4914917;29;20048;-71
2023/04/21 10:24:38;;;;;;;14.95;7.57;;;;;;;17.81;42.82;101236.00;4914823;29;20103;-71
2023/04/21 10:27:05;;;;;;;17.50;7.45;;;;;;;17.85;42.67;101221.00;4913883;29;20072;-70
2023/04/21 10:29:33;;;;;;;12.43;7.25;;;;;;;18.04;41.85;101233.91;4915067;29;20131;-71
2023/04/21 10:32:39;;;;;;;10.65;6.60;;;;;;;17.78;41.08;101220.94;4914557;29;20099;-71
2023/04/21 10:35:13;;;;;;;13.45;7.05;;;;;;;17.16;41.38;101221.53;4914441;29;20489;-73
2023/04/21 10:37:43;;;;;;;19.30;7.15;;;;;;;16.66;41.68;101224.09;4914848;29;20424;-71
2023/04/21 10:40:30;;;;;;;17.67;6.88;;;;;;;16.72;40.73;101224.38;4914886;29;20048;-73
2023/04/21 10:43:43;;;;;;;17.33;7.30;;;;;;;16.83;40.64;101215.75;4906128;29;20048;-74
2023/04/21 10:46:39;;;;;;;10.70;6.55;;;;;;;17.05;39.72;101212.03;4914915;29;20365;-71
2023/04/21 10:49:07;;;;;;;16.45;7.00;;;;;;;17.12;39.89;101204.00;4899648;29;20130;-73
2023/04/21 10:52:01;;;;;;;12.52;6.47;;;;;;;16.63;41.14;101202.78;4914841;29;20052;-71
2023/04/21 10:54:35;;;;;;;14.65;6.18;;;;;;;16.58;42.40;101207.09;4914602;29;20108;-71
2023/04/21 10:57:06;;;;;;;15.10;6.68;;;;;;;16.46;42.76;101193.16;4906217;29;20076;-71
2023/04/21 10:59:34;;;;;;;15.57;7.18;;;;;;;17.00;42.70;101198.25;4903762;29;20095;-71
2023/04/21 11:02:03;;;;;;;10.90;6.75;;;;;;;17.45;40.47;101189.97;4914389;29;20040;-70
2023/04/21 11:04:30;;;;;;;13.45;6.80;;;;;;;17.52;39.08;101191.72;4895436;29;20044;-71
2023/04/21 11:07:03;;;;;;;9.77;5.97;;;;;;;17.88;39.14;101187.19;4903314;29;20131;-70
2023/04/21 11:09:31;;;;;;;12.30;6.88;;;;;;;17.91;38.83;101187.66;4914060;29;20055;-70
2023/04/21 11:11:58;;;;;;;10.77;6.22;;;;;;;18.13;38.97;101182.16;4912978;29;20059;-71
2023/04/21 11:14:24;;;;;;;17.70;6.80;;;;;;;18.13;38.09;101177.56;4914129;29;20043;-72
2023/04/21 11:16:51;;;;;;;14.45;6.57;;;;;;;17.34;38.50;101169.66;4914682;29;20056;-70